sensor_id;sensor_type;location;lat;lon;timestamp;pressure;altitude;pressure_sealevel;temperature;humidity
42601;BME280;28229;48.856;9.088;2023-02-19T00:01:35;98490.66;;;8.22;100.00
42601;BME280;28229;48.856;9.088;2023-02-19T00:04:19;98485.41;;;8.22;100.00
42601;BME280;28229;48.856;9.088;2023-02-19T00:06:47;98493.09;;;8.24;100.00
42601;BME280;28229;48.856;9.088;2023-02-19T00:09:15;98486.03;;;8.24;100.00
42601;BME280;28229;48.856;9.088;2023-02-19T00:11:42;98478.34;;;8.23;100.00
42601;BME280;28229;48.856;9.088;2023-02-19T00:14:10;98474.69;;;8.17;100.00
42601;BME280;28229;48.856;9.088;2023-02-19T00:16:39;98477.56;;;8.22;100.00
42601;BME280;28229;48.856;9.088;2023-02-19T00:19:09;98475.50;;;8.17;100.00
42601;BME280;28229;48.856;9.088;2023-02-19T00:21:36;98474.31;;;8.20;100.00
42601;BME280;28229;48.856;9.088;2023-02-19T00:24:04;98477.56;;;8.22;100.00
42601;BME280;28229;48.856;9.088;2023-02-19T00:26:32;98477.56;;;8.22;100.00
42601;BME280;28229;48.856;9.088;2023-02-19T00:29:01;98476.69;;;8.15;100.00
42601;BME280;28229;48.856;9.088;2023-02-19T00:31:30;98476.28;;;8.18;100.00
42601;BME280;28229;48.856;9.088;2023-02-19T00:33:59;98481.16;;;8.21;100.00
42601;BME280;28229;48.856;9.088;2023-02-19T00:36:26;98484.81;;;8.20;100.00
42601;BME280;28229;48.856;9.088;2023-02-19T00:38:53;98481.97;;;8.22;100.00
42601;BME280;28229;48.856;9.088;2023-02-19T00:41:21;98480.34;;;8.20;100.00
42601;BME280;28229;48.856;9.088;2023-02-19T00:43:49;98479.56;;;8.20;100.00
42601;BME280;28229;48.856;9.088;2023-02-19T00:46:17;98481.53;;;8.18;100.00
42601;BME280;28229;48.856;9.088;2023-02-19T00:48:44;98483.16;;;8.19;100.00
42601;BME280;28229;48.856;9.088;2023-02-19T00:51:10;98482.56;;;8.17;100.00
42601;BME280;28229;48.856;9.088;2023-02-19T00:53:37;98476.28;;;8.18;100.00
42601;BME280;28229;48.856;9.088;2023-02-19T00:56:03;98465.19;;;8.16;100.00
42601;BME280;28229;48.856;9.088;2023-02-19T00:58:30;98467.81;;;8.16;100.00
42601;BME280;28229;48.856;9.088;2023-02-19T01:00:57;98463.59;;;8.15;100.00
42601;BME280;28229;48.856;9.088;2023-02-19T01:03:23;98462.00;;;8.20;100.00
42601;BME280;28229;48.856;9.088;2023-02-19T01:05:51;98458.59;;;8.20;100.00
42601;BME280;28229;48.856;9.088;2023-02-19T01:08:18;98457.31;;;8.16;100.00
42601;BME280;28229;48.856;9.088;2023-02-19T01:10:45;98451.09;;;8.17;100.00
42601;BME280;28229;48.856;9.088;2023-02-19T01:13:11;98458.59;;;8.20;100.00
42601;BME280;28229;48.856;9.088;2023-02-19T01:15:37;98454.59;;;8.24;100.00
42601;BME280;28229;48.856;9.088;2023-02-19T01:18:04;98448.31;;;8.25;100.00
42601;BME280;28229;48.856;9.088;2023-02-19T01:20:30;98451.19;;;8.30;100.00
42601;BME280;28229;48.856;9.088;2023-02-19T01:22:56;98445.34;;;8.28;100.00
42601;BME280;28229;48.856;9.088;2023-02-19T01:25:22;98444.91;;;8.25;100.00
42601;BME280;28229;48.856;9.088;2023-02-19T01:27:48;98440.28;;;8.27;100.00
42601;BME280;28229;48.856;9.088;2023-02-19T01:30:16;98440.88;;;8.29;100.00
42601;BME280;28229;48.856;9.088;2023-02-19T01:32:44;98436.84;;;8.26;100.00
42601;BME280;28229;48.856;9.088;2023-02-19T01:35:10;98443.31;;;8.30;100.00
42601;BME280;28229;48.856;9.088;2023-02-19T01:37:36;98453.63;;;8.32;100.00
42601;BME280;28229;48.856;9.088;2023-02-19T01:40:02;98440.53;;;8.32;100.00
42601;BME280;28229;48.856;9.088;2023-02-19T01:42:28;98440.09;;;8.28;100.00
42601;BME280;28229;48.856;9.088;2023-02-19T01:45:34;98439.53;;;8.33;100.00
42601;BME280;28229;48.856;9.088;2023-02-19T01:50:37;98439.28;;;8.28;100.00
42601;BME280;28229;48.856;9.088;2023-02-19T01:53:07;98443.31;;;8.30;100.00
42601;BME280;28229;48.856;9.088;2023-02-19T01:55:38;98439.09;;;8.29;100.00
42601;BME280;28229;48.856;9.088;2023-02-19T01:58:05;98433.44;;;8.26;100.00
42601;BME280;28229;48.856;9.088;2023-02-19T02:00:32;98439.28;;;8.28;100.00
42601;BME280;28229;48.856;9.088;2023-02-19T02:02:59;98444.72;;;8.26;100.00
42601;BME280;28229;48.856;9.088;2023-02-19T02:05:36;98448.97;;;8.27;100.00
42601;BME280;28229;48.856;9.088;2023-02-19T02:08:04;98447.28;;;8.19;100.00
42601;BME280;28229;48.856;9.088;2023-02-19T02:10:50;98447.84;;;8.15;100.00
42601;BME280;28229;48.856;9.088;2023-02-19T02:13:17;98431.97;;;8.23;100.00
42601;BME280;28229;48.856;9.088;2023-02-19T02:27:16;98409.16;;;8.17;100.00
42601;BME280;28229;48.856;9.088;2023-02-19T02:30:10;98402.81;;;8.05;100.00
42601;BME280;28229;48.856;9.088;2023-02-19T02:32:48;98401.19;;;8.04;100.00
42601;BME280;28229;48.856;9.088;2023-02-19T02:35:22;98399.81;;;8.08;100.00
42601;BME280;28229;48.856;9.088;2023-02-19T02:37:50;98392.34;;;8.05;100.00
42601;BME280;28229;48.856;9.088;2023-02-19T02:40:19;98396.97;;;8.03;100.00
42601;BME280;28229;48.856;9.088;2023-02-19T02:42:46;98392.94;;;8.07;100.00
42601;BME280;28229;48.856;9.088;2023-02-19T02:45:28;98387.34;;;8.10;100.00
42601;BME280;28229;48.856;9.088;2023-02-19T02:51:01;98399.41;;;8.04;100.00
42601;BME280;28229;48.856;9.088;2023-02-19T02:53:39;98400.38;;;8.03;100.00
42601;BME280;28229;48.856;9.088;2023-02-19T02:56:28;98402.19;;;8.03;100.00
42601;BME280;28229;48.856;9.088;2023-02-19T02:58:57;98399.16;;;7.99;100.00
42601;BME280;28229;48.856;9.088;2023-02-19T03:04:34;98403.38;;;8.00;100.00
42601;BME280;28229;48.856;9.088;2023-02-19T03:07:25;98397.88;;;7.95;100.00
42601;BME280;28229;48.856;9.088;2023-02-19T03:09:55;98389.84;;;7.96;100.00
42601;BME280;28229;48.856;9.088;2023-02-19T03:12:24;98392.09;;;7.99;100.00
42601;BME280;28229;48.856;9.088;2023-02-19T03:15:12;98389.47;;;7.99;100.00
42601;BME280;28229;48.856;9.088;2023-02-19T03:18:01;98383.00;;;7.95;100.00
42601;BME280;28229;48.856;9.088;2023-02-19T03:20:50;98382.75;;;7.90;100.00
42601;BME280;28229;48.856;9.088;2023-02-19T03:23:20;98382.94;;;7.89;100.00
42601;BME280;28229;48.856;9.088;2023-02-19T03:26:09;98379.69;;;7.87;100.00
42601;BME280;28229;48.856;9.088;2023-02-19T03:28:42;98378.13;;;7.92;100.00
42601;BME280;28229;48.856;9.088;2023-02-19T03:31:31;98378.91;;;7.86;100.00
42601;BME280;28229;48.856;9.088;2023-02-19T03:34:03;98375.88;;;7.89;100.00
42601;BME280;28229;48.856;9.088;2023-02-19T03:36:34;98376.88;;;7.88;100.00
42601;BME280;28229;48.856;9.088;2023-02-19T03:39:05;98379.69;;;7.87;100.00
42601;BME280;28229;48.856;9.088;2023-02-19T03:41:42;98377.25;;;7.85;100.00
42601;BME280;28229;48.856;9.088;2023-02-19T03:47:22;98376.81;;;7.81;100.00
42601;BME280;28229;48.856;9.088;2023-02-19T03:52:50;98381.88;;;7.83;100.00
42601;BME280;28229;48.856;9.088;2023-02-19T03:58:22;98386.94;;;7.85;100.00
42601;BME280;28229;48.856;9.088;2023-02-19T04:01:18;98398.22;;;7.85;100.00
42601;BME280;28229;48.856;9.088;2023-02-19T04:03:48;98394.19;;;7.82;100.00
42601;BME280;28229;48.856;9.088;2023-02-19T04:06:22;98397.00;;;7.88;100.00
42601;BME280;28229;48.856;9.088;2023-02-19T04:08:52;98399.44;;;7.89;100.00
42601;BME280;28229;48.856;9.088;2023-02-19T04:11:21;98398.84;;;7.87;100.00
42601;BME280;28229;48.856;9.088;2023-02-19T04:16:57;98400.28;;;7.90;100.00
42601;BME280;28229;48.856;9.088;2023-02-19T04:19:25;98414.81;;;7.92;100.00
42601;BME280;28229;48.856;9.088;2023-02-19T04:21:52;98414.00;;;7.92;100.00
42601;BME280;28229;48.856;9.088;2023-02-19T04:24:23;98416.97;;;7.89;100.00
42601;BME280;28229;48.856;9.088;2023-02-19T04:26:52;98401.09;;;7.90;100.00
42601;BME280;28229;48.856;9.088;2023-02-19T04:29:19;98411.38;;;7.92;100.00
42601;BME280;28229;48.856;9.088;2023-02-19T04:31:46;98422.03;;;7.90;100.00
42601;BME280;28229;48.856;9.088;2023-02-19T04:34:12;98424.22;;;7.87;100.00
42601;BME280;28229;48.856;9.088;2023-02-19T04:36:38;98428.00;;;7.84;100.00
42601;BME280;28229;48.856;9.088;2023-02-19T04:39:06;98427.22;;;7.84;100.00
42601;BME280;28229;48.856;9.088;2023-02-19T04:41:33;98420.72;;;7.79;100.00
42601;BME280;28229;48.856;9.088;2023-02-19T04:43:59;98430.41;;;7.79;100.00
42601;BME280;28229;48.856;9.088;2023-02-19T04:46:25;98436.25;;;7.81;100.00
42601;BME280;28229;48.856;9.088;2023-02-19T04:48:51;98430.84;;;7.82;100.00
42601;BME280;28229;48.856;9.088;2023-02-19T04:51:18;98433.66;;;7.81;100.00
42601;BME280;28229;48.856;9.088;2023-02-19T04:53:44;98434.63;;;7.80;100.00
42601;BME280;28229;48.856;9.088;2023-02-19T04:56:13;98444.13;;;7.81;100.00
42601;BME280;28229;48.856;9.088;2023-02-19T04:58:40;98442.50;;;7.80;100.00
42601;BME280;28229;48.856;9.088;2023-02-19T05:01:08;98454.16;;;7.77;100.00
42601;BME280;28229;48.856;9.088;2023-02-19T05:03:34;98447.28;;;7.76;100.00
42601;BME280;28229;48.856;9.088;2023-02-19T05:06:05;98449.28;;;7.74;100.00
42601;BME280;28229;48.856;9.088;2023-02-19T05:08:32;98456.34;;;7.74;100.00
42601;BME280;28229;48.856;9.088;2023-02-19T05:10:59;98450.41;;;7.65;100.00
42601;BME280;28229;48.856;9.088;2023-02-19T05:13:27;98452.59;;;7.61;100.00
42601;BME280;28229;48.856;9.088;2023-02-19T05:16:01;98453.22;;;7.63;100.00
42601;BME280;28229;48.856;9.088;2023-02-19T05:18:29;98467.28;;;7.62;100.00
42601;BME280;28229;48.856;9.088;2023-02-19T05:20:57;98452.59;;;7.61;100.00
42601;BME280;28229;48.856;9.088;2023-02-19T05:23:24;98450.69;;;7.55;100.00
42601;BME280;28229;48.856;9.088;2023-02-19T05:25:50;98456.75;;;7.56;100.00
42601;BME280;28229;48.856;9.088;2023-02-19T05:28:16;98449.09;;;7.54;100.00
42601;BME280;28229;48.856;9.088;2023-02-19T05:33:14;98454.25;;;7.48;100.00
42601;BME280;28229;48.856;9.088;2023-02-19T05:35:48;98460.28;;;7.48;100.00
42601;BME280;28229;48.856;9.088;2023-02-19T05:38:15;98470.41;;;7.51;100.00
42601;BME280;28229;48.856;9.088;2023-02-19T05:40:42;98467.16;;;7.49;100.00
42601;BME280;28229;48.856;9.088;2023-02-19T05:43:09;98469.50;;;7.44;100.00
42601;BME280;28229;48.856;9.088;2023-02-19T05:45:36;98473.38;;;7.48;100.00
42601;BME280;28229;48.856;9.088;2023-02-19T05:48:03;98475.63;;;7.51;100.00
42601;BME280;28229;48.856;9.088;2023-02-19T05:50:34;98476.00;;;7.48;100.00
42601;BME280;28229;48.856;9.088;2023-02-19T05:53:11;98469.41;;;7.52;100.00
42601;BME280;28229;48.856;9.088;2023-02-19T05:55:37;98485.31;;;7.51;100.00
42601;BME280;28229;48.856;9.088;2023-02-19T05:58:03;98476.06;;;7.55;100.00
42601;BME280;28229;48.856;9.088;2023-02-19T06:00:31;98475.28;;;7.54;100.00
42601;BME280;28229;48.856;9.088;2023-02-19T06:02:58;98475.44;;;7.53;100.00
42601;BME280;28229;48.856;9.088;2023-02-19T06:05:24;98474.00;;;7.50;100.00
42601;BME280;28229;48.856;9.088;2023-02-19T06:07:50;98484.09;;;7.53;100.00
42601;BME280;28229;48.856;9.088;2023-02-19T06:10:17;98488.47;;;7.46;100.00
42601;BME280;28229;48.856;9.088;2023-02-19T06:12:43;98480.25;;;7.49;100.00
42601;BME280;28229;48.856;9.088;2023-02-19T06:15:09;98488.09;;;7.49;100.00
42601;BME280;28229;48.856;9.088;2023-02-19T06:17:35;98480.25;;;7.49;100.00
42601;BME280;28229;48.856;9.088;2023-02-19T06:20:02;98479.50;;;7.55;99.94
42601;BME280;28229;48.856;9.088;2023-02-19T06:22:28;98486.72;;;7.53;98.78
42601;BME280;28229;48.856;9.088;2023-02-19T06:24:54;98489.34;;;7.53;98.46
42601;BME280;28229;48.856;9.088;2023-02-19T06:27:20;98487.97;;;7.57;97.82
42601;BME280;28229;48.856;9.088;2023-02-19T06:29:46;98488.63;;;7.59;97.40
42601;BME280;28229;48.856;9.088;2023-02-19T06:32:12;98489.97;;;7.55;97.87
42601;BME280;28229;48.856;9.088;2023-02-19T06:34:39;98501.72;;;7.59;96.74
42601;BME280;28229;48.856;9.088;2023-02-19T06:37:05;98500.69;;;7.60;95.70
42601;BME280;28229;48.856;9.088;2023-02-19T06:39:31;98504.97;;;7.61;96.33
42601;BME280;28229;48.856;9.088;2023-02-19T06:41:57;98513.97;;;7.59;96.03
42601;BME280;28229;48.856;9.088;2023-02-19T06:44:23;98523.66;;;7.58;95.28
42601;BME280;28229;48.856;9.088;2023-02-19T06:46:50;98532.47;;;7.57;95.45
42601;BME280;28229;48.856;9.088;2023-02-19T06:49:16;98532.66;;;7.71;94.44
42601;BME280;28229;48.856;9.088;2023-02-19T06:51:43;98535.00;;;7.66;94.13
42601;BME280;28229;48.856;9.088;2023-02-19T06:54:09;98535.63;;;7.68;94.33
42601;BME280;28229;48.856;9.088;2023-02-19T06:56:37;98542.34;;;7.70;94.65
42601;BME280;28229;48.856;9.088;2023-02-19T06:59:14;98553.59;;;7.71;93.73
42601;BME280;28229;48.856;9.088;2023-02-19T07:01:44;98541.13;;;7.73;93.39
42601;BME280;28229;48.856;9.088;2023-02-19T07:04:11;98543.75;;;7.73;94.33
42601;BME280;28229;48.856;9.088;2023-02-19T07:06:37;98545.13;;;7.69;94.67
42601;BME280;28229;48.856;9.088;2023-02-19T07:09:05;98557.28;;;7.76;93.63
42601;BME280;28229;48.856;9.088;2023-02-19T07:11:33;98558.31;;;7.75;94.34
42601;BME280;28229;48.856;9.088;2023-02-19T07:14:02;98563.34;;;7.77;94.34
42601;BME280;28229;48.856;9.088;2023-02-19T07:16:28;98567.59;;;7.78;94.73
42601;BME280;28229;48.856;9.088;2023-02-19T07:18:56;98563.34;;;7.77;94.13
42601;BME280;28229;48.856;9.088;2023-02-19T07:21:23;98571.19;;;7.77;93.89
42601;BME280;28229;48.856;9.088;2023-02-19T07:23:49;98574.66;;;7.77;93.72
42601;BME280;28229;48.856;9.088;2023-02-19T07:26:17;98577.09;;;7.79;93.25
42601;BME280;28229;48.856;9.088;2023-02-19T07:28:46;98573.28;;;7.81;93.41
42601;BME280;28229;48.856;9.088;2023-02-19T07:31:13;98579.72;;;7.79;92.61
42601;BME280;28229;48.856;9.088;2023-02-19T07:33:43;98576.69;;;7.82;91.53
42601;BME280;28229;48.856;9.088;2023-02-19T07:36:10;98579.94;;;7.84;92.00
42601;BME280;28229;48.856;9.088;2023-02-19T07:38:36;98581.13;;;7.81;91.90
42601;BME280;28229;48.856;9.088;2023-02-19T07:41:03;98594.31;;;7.88;90.69
42601;BME280;28229;48.856;9.088;2023-02-19T07:43:37;98593.31;;;7.89;91.36
42601;BME280;28229;48.856;9.088;2023-02-19T07:46:10;98605.44;;;7.90;91.03
42601;BME280;28229;48.856;9.088;2023-02-19T07:48:37;98601.00;;;7.91;90.39
42601;BME280;28229;48.856;9.088;2023-02-19T07:51:05;98593.41;;;7.96;90.27
42601;BME280;28229;48.856;9.088;2023-02-19T07:53:33;98615.53;;;7.93;90.02
42601;BME280;28229;48.856;9.088;2023-02-19T07:56:02;98615.53;;;7.93;90.65
42601;BME280;28229;48.856;9.088;2023-02-19T07:58:29;98633.63;;;7.88;90.97
42601;BME280;28229;48.856;9.088;2023-02-19T08:00:56;98625.63;;;7.96;89.83
42601;BME280;28229;48.856;9.088;2023-02-19T08:03:22;98628.25;;;7.96;89.48
42601;BME280;28229;48.856;9.088;2023-02-19T08:05:49;98625.28;;;7.99;90.19
42601;BME280;28229;48.856;9.088;2023-02-19T08:08:16;98622.03;;;7.97;90.59
42601;BME280;28229;48.856;9.088;2023-02-19T08:10:42;98635.13;;;7.97;89.67
42601;BME280;28229;48.856;9.088;2023-02-19T08:13:29;98630.53;;;7.99;89.42
42601;BME280;28229;48.856;9.088;2023-02-19T08:16:09;98624.09;;;8.02;89.89
42601;BME280;28229;48.856;9.088;2023-02-19T08:18:36;98617.69;;;8.05;90.07
42601;BME280;28229;48.856;9.088;2023-02-19T08:21:02;98618.50;;;8.05;89.81
42601;BME280;28229;48.856;9.088;2023-02-19T08:23:28;98620.94;;;8.07;90.53
42601;BME280;28229;48.856;9.088;2023-02-19T08:25:59;98623.38;;;8.08;90.32
42601;BME280;28229;48.856;9.088;2023-02-19T08:28:25;98638.66;;;8.05;89.91
42601;BME280;28229;48.856;9.088;2023-02-19T08:30:52;98644.50;;;8.07;90.85
42601;BME280;28229;48.856;9.088;2023-02-19T08:33:19;98643.53;;;8.08;90.52
42601;BME280;28229;48.856;9.088;2023-02-19T08:35:46;98653.28;;;8.14;90.62
42601;BME280;28229;48.856;9.088;2023-02-19T08:38:13;98640.44;;;8.19;89.11
42601;BME280;28229;48.856;9.088;2023-02-19T08:40:41;98642.44;;;8.17;88.08
42601;BME280;28229;48.856;9.088;2023-02-19T08:43:10;98638.00;;;8.17;87.92
42601;BME280;28229;48.856;9.088;2023-02-19T08:45:37;98644.69;;;8.20;88.38
42601;BME280;28229;48.856;9.088;2023-02-19T08:48:04;98637.44;;;8.22;88.78
42601;BME280;28229;48.856;9.088;2023-02-19T08:50:31;98641.66;;;8.23;87.88
42601;BME280;28229;48.856;9.088;2023-02-19T08:52:58;98637.44;;;8.22;88.31
42601;BME280;28229;48.856;9.088;2023-02-19T08:55:25;98645.66;;;8.19;87.83
42601;BME280;28229;48.856;9.088;2023-02-19T08:57:51;98638.44;;;8.21;88.21
42601;BME280;28229;48.856;9.088;2023-02-19T09:00:18;98658.78;;;8.19;88.76
42601;BME280;28229;48.856;9.088;2023-02-19T09:02:48;98656.34;;;8.17;89.18
42601;BME280;28229;48.856;9.088;2023-02-19T09:05:15;98656.91;;;8.13;89.03
42601;BME280;28229;48.856;9.088;2023-02-19T09:07:42;98668.09;;;8.07;89.71
42601;BME280;28229;48.856;9.088;2023-02-19T09:10:12;98673.25;;;8.15;88.88
42601;BME280;28229;48.856;9.088;2023-02-19T09:12:39;98681.91;;;8.15;88.76
42601;BME280;28229;48.856;9.088;2023-02-19T09:15:06;98674.94;;;8.23;87.12
42601;BME280;28229;48.856;9.088;2023-02-19T09:17:32;98681.81;;;8.24;85.67
42601;BME280;28229;48.856;9.088;2023-02-19T09:19:58;98686.13;;;8.31;85.84
42601;BME280;28229;48.856;9.088;2023-02-19T09:22:24;98698.06;;;8.34;85.26
42601;BME280;28229;48.856;9.088;2023-02-19T09:24:50;98692.56;;;8.44;84.31
42601;BME280;28229;48.856;9.088;2023-02-19T09:27:18;98693.19;;;8.46;84.34
42601;BME280;28229;48.856;9.088;2023-02-19T09:29:45;98700.06;;;8.47;83.40
42601;BME280;28229;48.856;9.088;2023-02-19T09:32:12;98713.41;;;8.52;84.37
42601;BME280;28229;48.856;9.088;2023-02-19T09:34:39;98698.97;;;8.56;83.98
42601;BME280;28229;48.856;9.088;2023-02-19T09:37:05;98698.56;;;8.59;82.92
42601;BME280;28229;48.856;9.088;2023-02-19T09:39:32;98708.34;;;8.65;82.62
42601;BME280;28229;48.856;9.088;2023-02-19T09:42:03;98691.84;;;8.71;81.00
42601;BME280;28229;48.856;9.088;2023-02-19T09:44:39;98701.97;;;8.74;80.95
42601;BME280;28229;48.856;9.088;2023-02-19T09:47:15;98696.97;;;8.80;80.50
42601;BME280;28229;48.856;9.088;2023-02-19T09:49:45;98699.28;;;8.89;79.64
42601;BME280;28229;48.856;9.088;2023-02-19T09:55:35;98705.19;;;9.20;78.24
42601;BME280;28229;48.856;9.088;2023-02-19T09:58:44;98712.66;;;9.38;77.75
42601;BME280;28229;48.856;9.088;2023-02-19T10:01:13;98709.81;;;9.39;75.09
42601;BME280;28229;48.856;9.088;2023-02-19T10:03:43;98703.81;;;9.45;76.13
42601;BME280;28229;48.856;9.088;2023-02-19T10:06:23;98705.03;;;9.49;75.41
42601;BME280;28229;48.856;9.088;2023-02-19T10:08:55;98685.66;;;9.50;74.20
42601;BME280;28229;48.856;9.088;2023-02-19T10:11:24;98691.78;;;9.58;74.81
42601;BME280;28229;48.856;9.088;2023-02-19T10:14:00;98700.50;;;9.65;75.11
42601;BME280;28229;48.856;9.088;2023-02-19T10:16:28;98703.13;;;9.65;72.85
42601;BME280;28229;48.856;9.088;2023-02-19T10:18:55;98697.09;;;9.71;73.75
42601;BME280;28229;48.856;9.088;2023-02-19T10:21:23;98705.28;;;9.83;74.14
42601;BME280;28229;48.856;9.088;2023-02-19T10:23:56;98710.16;;;9.93;73.98
42601;BME280;28229;48.856;9.088;2023-02-19T10:26:24;98705.75;;;10.00;72.80
42601;BME280;28229;48.856;9.088;2023-02-19T10:28:50;98718.75;;;10.08;73.37
42601;BME280;28229;48.856;9.088;2023-02-19T10:31:22;98718.94;;;10.06;71.89
42601;BME280;28229;48.856;9.088;2023-02-19T10:33:54;98717.19;;;10.20;73.44
42601;BME280;28229;48.856;9.088;2023-02-19T10:39:01;98729.03;;;10.38;70.23
42601;BME280;28229;48.856;9.088;2023-02-19T10:41:28;98728.22;;;10.37;70.79
42601;BME280;28229;48.856;9.088;2023-02-19T10:46:31;98740.56;;;10.37;69.68
42601;BME280;28229;48.856;9.088;2023-02-19T10:49:00;98733.88;;;10.41;71.51
42601;BME280;28229;48.856;9.088;2023-02-19T10:51:32;98739.59;;;10.51;70.60
42601;BME280;28229;48.856;9.088;2023-02-19T10:54:26;98750.50;;;10.48;70.79
42601;BME280;28229;48.856;9.088;2023-02-19T10:57:15;98750.09;;;10.44;71.19
42601;BME280;28229;48.856;9.088;2023-02-19T10:59:52;98750.94;;;10.45;70.97
42601;BME280;28229;48.856;9.088;2023-02-19T11:02:20;98748.28;;;10.45;70.30
42601;BME280;28229;48.856;9.088;2023-02-19T11:07:42;98765.81;;;10.31;69.89
42601;BME280;28229;48.856;9.088;2023-02-19T11:10:19;98766.34;;;10.20;71.36
42601;BME280;28229;48.856;9.088;2023-02-19T11:12:48;98759.66;;;10.17;73.64
42601;BME280;28229;48.856;9.088;2023-02-19T11:15:26;98763.97;;;10.25;74.01
42601;BME280;28229;48.856;9.088;2023-02-19T11:20:30;98748.38;;;10.23;71.49
42601;BME280;28229;48.856;9.088;2023-02-19T11:23:00;98736.59;;;10.13;69.58
42601;BME280;28229;48.856;9.088;2023-02-19T11:25:29;98748.25;;;10.03;71.86
42601;BME280;28229;48.856;9.088;2023-02-19T11:28:05;98746.03;;;10.00;72.07
42601;BME280;28229;48.856;9.088;2023-02-19T11:30:36;98742.34;;;9.95;71.18
42601;BME280;28229;48.856;9.088;2023-02-19T11:33:29;98750.19;;;9.88;72.24
42601;BME280;28229;48.856;9.088;2023-02-19T11:38:48;98754.59;;;9.87;73.45
42601;BME280;28229;48.856;9.088;2023-02-19T11:41:21;98749.16;;;9.89;73.53
42601;BME280;28229;48.856;9.088;2023-02-19T11:44:19;98758.94;;;9.95;72.70
42601;BME280;28229;48.856;9.088;2023-02-19T11:55:16;98772.78;;;9.82;71.42
42601;BME280;28229;48.856;9.088;2023-02-19T11:57:53;98774.41;;;9.83;71.77
42601;BME280;28229;48.856;9.088;2023-02-19T12:00:26;98780.44;;;9.77;71.07
42601;BME280;28229;48.856;9.088;2023-02-19T12:03:19;98786.31;;;9.79;72.42
42601;BME280;28229;48.856;9.088;2023-02-19T12:06:02;98792.97;;;9.82;71.44
42601;BME280;28229;48.856;9.088;2023-02-19T12:09:11;98786.13;;;9.81;70.74
42601;BME280;28229;48.856;9.088;2023-02-19T12:12:00;98775.25;;;9.90;72.00
42601;BME280;28229;48.856;9.088;2023-02-19T12:14:46;98777.50;;;9.94;70.58
42601;BME280;28229;48.856;9.088;2023-02-19T12:26:00;98744.75;;;9.89;72.05
42601;BME280;28229;48.856;9.088;2023-02-19T12:31:50;98749.81;;;9.91;72.88
42601;BME280;28229;48.856;9.088;2023-02-19T12:43:20;98756.88;;;10.25;71.32
42601;BME280;28229;48.856;9.088;2023-02-19T12:46:02;98761.09;;;10.26;71.33
42601;BME280;28229;48.856;9.088;2023-02-19T12:51:20;98744.09;;;10.22;68.84
42601;BME280;28229;48.856;9.088;2023-02-19T12:56:28;98740.31;;;10.32;69.33
42601;BME280;28229;48.856;9.088;2023-02-19T12:58:59;98755.66;;;10.28;67.20
42601;BME280;28229;48.856;9.088;2023-02-19T13:01:44;98743.09;;;10.23;66.53
42601;BME280;28229;48.856;9.088;2023-02-19T13:04:29;98748.31;;;10.17;65.47
42601;BME280;28229;48.856;9.088;2023-02-19T13:07:12;98752.34;;;10.13;66.00
42601;BME280;28229;48.856;9.088;2023-02-19T13:09:46;98767.72;;;10.09;66.64
42601;BME280;28229;48.856;9.088;2023-02-19T13:12:19;98752.31;;;10.06;66.53
42601;BME280;28229;48.856;9.088;2023-02-19T13:17:48;98749.59;;;9.93;67.75
42601;BME280;28229;48.856;9.088;2023-02-19T13:20:36;98746.94;;;9.86;68.13
42601;BME280;28229;48.856;9.088;2023-02-19T13:23:27;98748.53;;;9.87;68.06
42601;BME280;28229;48.856;9.088;2023-02-19T13:26:42;98754.81;;;9.86;68.57
42601;BME280;28229;48.856;9.088;2023-02-19T13:37:15;98755.31;;;9.68;67.40
42601;BME280;28229;48.856;9.088;2023-02-19T13:40:18;98749.81;;;9.63;67.29
42601;BME280;28229;48.856;9.088;2023-02-19T13:42:56;98761.13;;;9.63;69.44
42601;BME280;28229;48.856;9.088;2023-02-19T13:45:32;98749.38;;;9.59;70.40
42601;BME280;28229;48.856;9.088;2023-02-19T13:48:12;98752.56;;;9.55;72.53
42601;BME280;28229;48.856;9.088;2023-02-19T13:50:40;98740.22;;;9.48;74.26
42601;BME280;28229;48.856;9.088;2023-02-19T14:12:08;98727.19;;;9.40;75.57
42601;BME280;28229;48.856;9.088;2023-02-19T14:14:53;98720.75;;;9.43;73.09
42601;BME280;28229;48.856;9.088;2023-02-19T14:33:08;98740.44;;;9.82;69.97
42601;BME280;28229;48.856;9.088;2023-02-19T14:35:39;98752.63;;;9.89;70.69
42601;BME280;28229;48.856;9.088;2023-02-19T14:38:15;98747.78;;;9.93;70.48
42601;BME280;28229;48.856;9.088;2023-02-19T14:40:45;98746.97;;;9.93;68.08
42601;BME280;28229;48.856;9.088;2023-02-19T14:43:14;98749.34;;;9.87;67.90
42601;BME280;28229;48.856;9.088;2023-02-19T14:45:45;98758.69;;;9.90;67.30
42601;BME280;28229;48.856;9.088;2023-02-19T14:48:40;98758.81;;;9.82;66.82
42601;BME280;28229;48.856;9.088;2023-02-19T14:51:13;98770.28;;;9.74;67.44
42601;BME280;28229;48.856;9.088;2023-02-19T14:53:42;98771.94;;;9.75;67.74
42601;BME280;28229;48.856;9.088;2023-02-19T14:56:19;98766.28;;;9.78;67.18
42601;BME280;28229;48.856;9.088;2023-02-19T14:59:05;98766.69;;;9.75;67.51
42601;BME280;28229;48.856;9.088;2023-02-19T15:01:31;98761.78;;;9.72;68.27
42601;BME280;28229;48.856;9.088;2023-02-19T15:03:58;98771.50;;;9.71;68.85
42601;BME280;28229;48.856;9.088;2023-02-19T15:06:24;98782.81;;;9.72;68.90
42601;BME280;28229;48.856;9.088;2023-02-19T15:08:57;98781.59;;;9.68;69.29
42601;BME280;28229;48.856;9.088;2023-02-19T15:11:26;98795.38;;;9.77;69.33
42601;BME280;28229;48.856;9.088;2023-02-19T15:13:59;98798.25;;;9.82;69.01
42601;BME280;28229;48.856;9.088;2023-02-19T15:16:28;98798.00;;;9.77;68.74
42601;BME280;28229;48.856;9.088;2023-02-19T15:18:56;98803.03;;;9.71;69.04
42601;BME280;28229;48.856;9.088;2023-02-19T15:21:26;98802.38;;;9.69;68.75
42601;BME280;28229;48.856;9.088;2023-02-19T15:23:55;98807.78;;;9.61;68.31
42601;BME280;28229;48.856;9.088;2023-02-19T15:26:38;98801.50;;;9.56;69.05
42601;BME280;28229;48.856;9.088;2023-02-19T15:29:16;98806.09;;;9.53;69.21
42601;BME280;28229;48.856;9.088;2023-02-19T15:31:57;98809.56;;;9.54;69.55
42601;BME280;28229;48.856;9.088;2023-02-19T15:34:24;98815.97;;;9.51;69.87
42601;BME280;28229;48.856;9.088;2023-02-19T15:36:54;98814.91;;;9.46;70.59
42601;BME280;28229;48.856;9.088;2023-02-19T15:39:23;98814.91;;;9.46;70.72